General Mitchell International Airport
KMKE : now visible

Airfield :











YOU CAN JOIN US ON...

 
LOGIN :

Register | Disclaimer

   EN    FR    IT 

 









Legend :    VFR   Marginal VFR   IFR   Intensive IFR   Very Intensive IFR
Visi :
Ceiling :
>= 8 km
>= 3000ft
5 to 8 km
1000 to 3000 ft
1500m to 5 km
500 to 1000 ft
800 to 1500m
200 to 500 ft
< 800m
< 200 ft
Symbols :   Thunderstorms  Fog  Heavy snow  Heavy precipitations  Wind > 20 kt






- Airport Elevation : 723 ft
- IATA code : MKE


KMKE - General Mitchell International

CURRENT METAR :
  • 291314Z 32003KT 10SM OVC030 M02/M07 A3019 RMK AO2 T10221067

EXPIRED METARs :
  • 291252Z 32004KT 10SM OVC029 M02/M07 A3019 RMK AO2 SLP233 T10221067
  • 291152Z 32004KT 10SM OVC029 M02/M07 A3017 RMK AO2 SLP228 4/002 T10221072 11017 21022 52007
  • 291052Z 33004KT 10SM OVC027 M02/M07 A3017 RMK AO2 SLP226 T10221072

TAF KMKE
Valid from the 29 at 12:00 until the 30 at 18:00 UTC


291135Z 2912/3018 33005KT P6SM OVC025
TEMPO 2917/2921 -SN



MET'MAP, your aeronautical weather chart ! - Copyright ORBIFLY December 2007 - Disclaimer

ORBIFLY MET'MAP TEAM :

Programming & Development : Alexandra Zaïnal
Concept & original design : Baudouin d'Aumeries
Assistance for programming : Marc-Olivier Méhu
Technical & hardware support : Manuel Goepfert

Contact : metmap@orbifly.com




SOURCES & CREDITS :

   NOAA       Earth
Advisory